createdAt,value
2019-02-17T00:01:44.580Z,31.10
2019-02-17T00:04:47.235Z,35.73
2019-02-17T00:07:50.048Z,37.00
2019-02-17T00:10:52.785Z,31.53
2019-02-17T00:13:55.394Z,33.60
2019-02-17T00:16:57.931Z,29.10
2019-02-17T00:20:00.644Z,30.97
2019-02-17T00:23:03.305Z,30.70
2019-02-17T00:26:05.962Z,34.50
2019-02-17T00:29:08.494Z,36.00
2019-02-17T00:32:11.205Z,33.70
2019-02-17T00:35:13.884Z,32.10
2019-02-17T00:38:16.490Z,31.73
2019-02-17T00:41:19.153Z,33.23
2019-02-17T00:44:21.863Z,35.50
2019-02-17T00:47:24.551Z,34.23
2019-02-17T00:50:27.134Z,35.07
2019-02-17T00:53:29.789Z,31.90
2019-02-17T00:56:32.408Z,31.93
2019-02-17T00:59:35.003Z,34.77
2019-02-17T01:02:37.691Z,30.03
2019-02-17T01:05:40.332Z,31.20
2019-02-17T01:08:43.022Z,30.60
2019-02-17T01:11:45.703Z,34.37
2019-02-17T01:14:48.360Z,36.97
2019-02-17T01:17:50.964Z,37.23
2019-02-17T01:20:53.551Z,32.87
2019-02-17T01:23:56.241Z,28.93
2019-02-17T01:26:58.801Z,34.40
2019-02-17T01:30:01.375Z,33.00
2019-02-17T01:33:04.315Z,29.30
2019-02-17T01:36:06.984Z,34.37
2019-02-17T01:39:09.677Z,36.70
2019-02-17T01:42:12.215Z,33.80
2019-02-17T01:45:15.197Z,35.23
2019-02-17T01:48:17.911Z,34.43
2019-02-17T01:51:20.652Z,34.03
2019-02-17T01:54:23.355Z,37.20
2019-02-17T01:57:25.979Z,34.00
2019-02-17T02:00:31.763Z,32.30
2019-02-17T02:03:34.403Z,30.97
2019-02-17T02:06:37.038Z,35.83
2019-02-17T02:09:39.605Z,38.80
2019-02-17T02:12:43.992Z,30.20
2019-02-17T02:15:47.750Z,32.73
2019-02-17T02:18:50.403Z,33.57
2019-02-17T02:21:53.044Z,38.53
2019-02-17T02:24:55.606Z,32.30
2019-02-17T02:27:58.329Z,36.73
2019-02-17T02:31:00.924Z,31.57
2019-02-17T02:34:03.819Z,34.27
2019-02-17T02:37:06.498Z,31.73
2019-02-17T02:40:09.161Z,32.63
2019-02-17T02:43:11.958Z,36.57
2019-02-17T02:46:14.548Z,35.80
2019-02-17T02:49:17.244Z,40.03
2019-02-17T02:52:19.812Z,34.87
2019-02-17T02:55:22.598Z,37.37
2019-02-17T02:58:25.248Z,35.30
2019-02-17T03:01:29.696Z,33.80
2019-02-17T03:04:32.342Z,31.70
2019-02-17T03:07:35.039Z,34.00
2019-02-17T03:10:37.826Z,34.53
2019-02-17T03:13:40.457Z,37.07
2019-02-17T03:16:43.110Z,34.60
2019-02-17T03:19:45.870Z,30.80
2019-02-17T03:22:48.538Z,30.93
2019-02-17T03:25:51.144Z,36.23
2019-02-17T03:28:53.861Z,39.70
2019-02-17T03:31:56.498Z,34.40
2019-02-17T03:34:59.207Z,36.63
2019-02-17T03:38:03.996Z,35.93
2019-02-17T03:41:06.797Z,32.40
2019-02-17T03:44:09.442Z,40.57
2019-02-17T03:47:12.131Z,33.53
2019-02-17T03:50:14.821Z,36.63
2019-02-17T03:53:17.371Z,36.80
2019-02-17T03:56:19.977Z,33.70
2019-02-17T03:59:22.621Z,39.03
2019-02-17T04:02:25.176Z,36.00
2019-02-17T04:05:27.823Z,37.30
2019-02-17T04:08:30.584Z,38.17
2019-02-17T04:11:33.295Z,35.10
2019-02-17T04:14:35.875Z,35.03
2019-02-17T04:17:38.399Z,35.93
2019-02-17T04:20:41.057Z,32.97
2019-02-17T04:23:43.616Z,36.27
2019-02-17T04:26:46.145Z,30.43
2019-02-17T04:29:48.732Z,37.13
2019-02-17T04:32:51.415Z,36.67
2019-02-17T04:35:54.017Z,34.63
2019-02-17T04:38:56.746Z,37.00
2019-02-17T04:41:59.476Z,34.03
2019-02-17T04:45:04.415Z,35.30
2019-02-17T04:48:07.021Z,32.63
2019-02-17T04:51:11.377Z,36.53
2019-02-17T04:54:13.922Z,33.33
2019-02-17T04:57:16.689Z,29.63
2019-02-17T05:00:19.440Z,31.50
2019-02-17T05:03:34.551Z,35.90
2019-02-17T05:06:37.117Z,34.13
2019-02-17T05:09:39.730Z,34.97
2019-02-17T05:12:42.431Z,33.30
2019-02-17T05:15:48.023Z,33.40
2019-02-17T05:18:50.620Z,39.63
2019-02-17T05:21:53.351Z,33.57
2019-02-17T05:24:55.916Z,32.53
2019-02-17T05:27:58.610Z,35.00
2019-02-17T05:31:01.290Z,31.97
2019-02-17T05:34:03.930Z,31.97
2019-02-17T05:37:06.623Z,29.13
2019-02-17T05:40:09.463Z,32.53
2019-02-17T05:43:12.098Z,29.57
2019-02-17T05:46:14.696Z,31.03
2019-02-17T05:49:17.530Z,34.20
2019-02-17T05:52:20.250Z,34.53
2019-02-17T05:55:22.910Z,34.00
2019-02-17T05:58:25.667Z,35.20
2019-02-17T06:01:28.347Z,33.03
2019-02-17T06:04:30.899Z,30.93
2019-02-17T06:07:33.493Z,29.50
2019-02-17T06:10:36.051Z,29.67
2019-02-17T06:13:38.632Z,32.07
2019-02-17T06:16:41.335Z,35.67
2019-02-17T06:19:43.991Z,33.77
2019-02-17T06:22:47.805Z,32.57
2019-02-17T06:25:50.444Z,41.70
2019-02-17T06:28:54.312Z,36.60
2019-02-17T06:31:56.885Z,32.23
2019-02-17T06:34:59.461Z,29.73
2019-02-17T06:38:02.151Z,33.03
2019-02-17T06:41:04.944Z,32.23
2019-02-17T06:44:07.670Z,33.07
2019-02-17T06:47:18.211Z,33.83
2019-02-17T06:50:20.883Z,33.70
2019-02-17T06:53:23.460Z,33.40
2019-02-17T06:56:45.546Z,34.50
2019-02-17T06:59:48.300Z,31.67
2019-02-17T07:02:51.010Z,31.33
2019-02-17T07:06:12.943Z,37.43
2019-02-17T07:09:15.600Z,35.63
2019-02-17T07:12:18.163Z,32.87
2019-02-17T07:15:21.890Z,35.97
2019-02-17T07:18:24.540Z,33.07
2019-02-17T07:21:27.097Z,31.63
2019-02-17T07:24:29.847Z,35.40
2019-02-17T07:27:32.495Z,32.00
2019-02-17T07:30:35.091Z,36.77
2019-02-17T07:33:37.907Z,33.50
2019-02-17T07:36:40.628Z,33.30
2019-02-17T07:39:43.202Z,34.90
2019-02-17T07:42:45.738Z,36.87
2019-02-17T07:45:48.462Z,36.43
2019-02-17T07:48:51.096Z,35.30
2019-02-17T07:51:53.790Z,34.60
2019-02-17T07:54:56.506Z,34.10
2019-02-17T07:57:59.180Z,36.27
2019-02-17T08:01:01.787Z,35.17
2019-02-17T08:04:04.348Z,33.33
2019-02-17T08:07:07.473Z,34.43
2019-02-17T08:10:10.237Z,32.93
2019-02-17T08:13:12.801Z,35.00
2019-02-17T08:16:15.432Z,37.83
2019-02-17T08:19:18.031Z,38.53
2019-02-17T08:22:23.678Z,41.13
2019-02-17T08:25:26.260Z,38.97
2019-02-17T08:28:29.282Z,39.97
2019-02-17T08:31:32.092Z,38.80
2019-02-17T08:34:34.716Z,38.10
2019-02-17T08:37:37.427Z,34.73
2019-02-17T08:40:40.046Z,38.13
2019-02-17T08:43:42.664Z,36.43
2019-02-17T08:46:45.339Z,37.20
2019-02-17T08:49:48.092Z,36.90
2019-02-17T08:52:50.724Z,37.33
2019-02-17T08:55:53.420Z,43.37
2019-02-17T08:58:56.240Z,38.33
2019-02-17T09:02:05.538Z,37.50
2019-02-17T09:05:03.731Z,35.77
2019-02-17T09:08:06.491Z,36.90
2019-02-17T09:11:10.167Z,35.43
2019-02-17T09:14:12.806Z,34.80
2019-02-17T09:17:15.457Z,34.63
2019-02-17T09:20:18.002Z,34.57
2019-02-17T09:23:23.783Z,35.53
2019-02-17T09:26:26.511Z,40.70
2019-02-17T09:29:30.650Z,38.23
2019-02-17T09:32:33.266Z,37.37
2019-02-17T09:35:35.867Z,34.67
2019-02-17T09:38:38.470Z,40.50
2019-02-17T09:41:41.196Z,37.53
2019-02-17T09:44:44.001Z,38.67
2019-02-17T09:47:46.565Z,37.73
2019-02-17T09:50:49.136Z,40.47
2019-02-17T09:53:51.917Z,38.30
2019-02-17T09:56:55.491Z,36.37
2019-02-17T09:59:58.190Z,35.37
2019-02-17T10:03:00.783Z,34.47
2019-02-17T10:06:03.524Z,40.50
2019-02-17T10:09:06.225Z,41.83
2019-02-17T10:12:08.810Z,39.90
2019-02-17T10:15:12.111Z,34.00
2019-02-17T10:18:14.734Z,44.03
2019-02-17T10:21:17.392Z,39.40
2019-02-17T10:24:20.051Z,38.60
2019-02-17T10:27:22.739Z,38.67
2019-02-17T10:30:25.314Z,36.07
2019-02-17T10:33:27.866Z,39.40
2019-02-17T10:36:30.612Z,38.63
2019-02-17T10:39:34.230Z,39.03
2019-02-17T10:42:36.861Z,33.60
2019-02-17T10:45:39.556Z,39.93
2019-02-17T10:48:42.267Z,40.37
2019-02-17T10:51:44.916Z,37.87
2019-02-17T10:54:47.526Z,35.80
2019-02-17T10:57:50.200Z,36.80
2019-02-17T11:00:53.018Z,38.07
2019-02-17T11:04:07.446Z,32.13
2019-02-17T11:07:10.010Z,38.90
2019-02-17T11:10:12.862Z,38.90
2019-02-17T11:13:15.519Z,40.70
2019-02-17T11:16:18.114Z,31.67
2019-02-17T11:19:20.790Z,36.70
2019-02-17T11:22:23.541Z,35.53
2019-02-17T11:25:27.361Z,39.00
2019-02-17T11:28:30.040Z,34.20
2019-02-17T11:31:32.751Z,31.90
2019-02-17T11:34:35.427Z,38.80
2019-02-17T11:37:38.197Z,36.47
2019-02-17T11:40:40.904Z,37.10
2019-02-17T11:43:43.491Z,34.07
2019-02-17T11:46:46.264Z,33.83
2019-02-17T11:49:48.844Z,31.90
2019-02-17T11:52:51.444Z,32.43
2019-02-17T11:55:54.029Z,30.43
2019-02-17T11:58:56.726Z,31.90
2019-02-17T12:01:59.522Z,34.30
2019-02-17T12:05:02.185Z,27.67
2019-02-17T12:08:07.925Z,29.30
2019-02-17T12:11:10.599Z,33.40
2019-02-17T12:14:13.396Z,31.90
2019-02-17T12:17:16.235Z,32.70
2019-02-17T12:20:37.804Z,33.13
2019-02-17T12:23:43.550Z,32.33
2019-02-17T12:27:17.975Z,36.80
2019-02-17T12:30:22.485Z,38.80
2019-02-17T12:33:25.361Z,32.40
2019-02-17T12:36:28.344Z,35.67
2019-02-17T12:39:30.998Z,32.67
2019-02-17T12:42:33.750Z,33.10
2019-02-17T12:45:36.512Z,29.93
2019-02-17T12:48:39.797Z,32.70
2019-02-17T12:51:42.859Z,31.47
2019-02-17T12:54:45.496Z,28.30
2019-02-17T12:57:48.259Z,32.50
2019-02-17T13:00:51.030Z,33.03
2019-02-17T13:03:53.699Z,32.00
2019-02-17T13:06:56.394Z,29.33
2019-02-17T13:09:58.931Z,31.70
2019-02-17T13:13:01.550Z,37.23
2019-02-17T13:16:04.265Z,29.07
2019-02-17T13:19:07.111Z,32.20
2019-02-17T13:22:10.136Z,32.50
2019-02-17T13:25:12.914Z,33.17
2019-02-17T13:28:15.590Z,32.90
2019-02-17T13:31:18.360Z,33.00
2019-02-17T13:34:21.055Z,34.43
2019-02-17T13:37:23.668Z,31.30
2019-02-17T13:40:26.402Z,31.83
2019-02-17T13:43:29.112Z,29.67
2019-02-17T13:46:31.776Z,28.83
2019-02-17T13:49:34.376Z,31.83
2019-02-17T13:52:36.915Z,28.30
2019-02-17T13:55:42.005Z,28.83
2019-02-17T13:58:44.746Z,29.70
2019-02-17T14:01:47.385Z,28.83
2019-02-17T14:04:50.054Z,33.30
2019-02-17T14:07:52.643Z,27.73
2019-02-17T14:10:55.433Z,38.43
2019-02-17T14:13:58.253Z,30.17
2019-02-17T14:17:00.856Z,26.57
2019-02-17T14:20:03.965Z,33.30
2019-02-17T14:23:06.901Z,25.63
2019-02-17T14:26:09.636Z,27.70
2019-02-17T14:29:12.239Z,27.20
2019-02-17T14:32:15.124Z,29.10
2019-02-17T14:35:17.789Z,26.30
2019-02-17T14:38:20.440Z,27.17
2019-02-17T14:41:23.290Z,26.13
2019-02-17T14:44:25.874Z,25.10
2019-02-17T14:47:28.425Z,29.50
2019-02-17T14:50:31.091Z,26.43
2019-02-17T14:53:33.885Z,26.80
2019-02-17T14:56:39.695Z,25.83
2019-02-17T14:59:42.265Z,29.43
2019-02-17T15:02:47.272Z,29.67
2019-02-17T15:05:50.004Z,25.50
2019-02-17T15:08:54.735Z,31.50
2019-02-17T15:11:58.163Z,32.83
2019-02-17T15:15:00.994Z,26.23
2019-02-17T15:18:04.014Z,27.67
2019-02-17T15:21:06.689Z,27.20
2019-02-17T15:24:09.393Z,28.20
2019-02-17T15:27:11.967Z,26.40
2019-02-17T15:30:14.748Z,29.97
2019-02-17T15:33:17.339Z,28.07
2019-02-17T15:36:19.976Z,27.17
2019-02-17T15:39:22.574Z,27.03
2019-02-17T15:42:25.445Z,31.37
2019-02-17T15:45:28.085Z,27.90
2019-02-17T15:48:30.784Z,30.80
2019-02-17T15:51:33.449Z,31.63
2019-02-17T15:54:36.060Z,28.87
2019-02-17T15:57:38.719Z,27.43
2019-02-17T16:00:41.434Z,27.93
2019-02-17T16:03:45.037Z,28.90
2019-02-17T16:06:48.018Z,26.53
2019-02-17T16:09:50.823Z,30.30
2019-02-17T16:12:53.528Z,44.40
2019-02-17T16:15:56.309Z,37.50
2019-02-17T16:18:58.864Z,28.77
2019-02-17T16:22:01.435Z,27.37
2019-02-17T16:25:04.244Z,28.80
2019-02-17T16:28:06.994Z,27.83
2019-02-17T16:31:09.679Z,28.30
2019-02-17T16:34:12.208Z,29.60
2019-02-17T16:37:14.875Z,29.03
2019-02-17T16:40:17.497Z,24.70
2019-02-17T16:43:20.110Z,25.63
2019-02-17T16:46:22.735Z,31.97
2019-02-17T16:49:25.289Z,27.90
2019-02-17T16:52:28.127Z,29.90
2019-02-17T16:55:30.802Z,23.33
2019-02-17T16:58:33.482Z,28.43
2019-02-17T17:01:36.185Z,25.23
2019-02-17T17:04:47.880Z,24.80
2019-02-17T17:07:43.343Z,23.77
2019-02-17T17:10:46.112Z,29.73
2019-02-17T17:13:48.739Z,27.97
2019-02-17T17:16:51.428Z,26.23
2019-02-17T17:19:54.086Z,24.50
2019-02-17T17:22:56.673Z,26.20
2019-02-17T17:25:59.444Z,27.50
2019-02-17T17:29:03.077Z,26.73
2019-02-17T17:32:05.829Z,30.30
2019-02-17T17:35:09.019Z,29.53
2019-02-17T17:38:12.858Z,26.87
2019-02-17T17:41:15.637Z,31.80
2019-02-17T17:44:18.253Z,27.70
2019-02-17T17:47:21.020Z,29.80
2019-02-17T17:50:23.724Z,31.63
2019-02-17T17:53:26.357Z,26.97
2019-02-17T17:56:29.196Z,27.10
2019-02-17T17:59:31.863Z,28.80
2019-02-17T18:02:34.583Z,29.17
2019-02-17T18:05:37.404Z,28.53
2019-02-17T18:08:42.454Z,25.97
2019-02-17T18:11:45.123Z,26.33
2019-02-17T18:14:47.692Z,31.43
2019-02-17T18:17:54.596Z,23.87
2019-02-17T18:20:55.079Z,27.50
2019-02-17T18:23:57.633Z,29.13
2019-02-17T18:27:00.272Z,28.43
2019-02-17T18:30:03.048Z,28.00
2019-02-17T18:33:05.787Z,37.00
2019-02-17T18:36:08.474Z,26.30
2019-02-17T18:39:12.038Z,28.23
2019-02-17T18:42:14.847Z,27.10
2019-02-17T18:45:17.607Z,30.83
2019-02-17T18:48:20.340Z,26.43
2019-02-17T18:51:23.127Z,30.70
2019-02-17T18:54:25.930Z,31.03
2019-02-17T18:57:28.522Z,29.20
2019-02-17T19:00:32.657Z,28.03
2019-02-17T19:03:35.287Z,33.47
2019-02-17T19:06:37.998Z,31.90
2019-02-17T19:09:40.822Z,28.97
2019-02-17T19:12:43.400Z,30.33
2019-02-17T19:15:47.107Z,26.47
2019-02-17T19:18:50.857Z,28.53
2019-02-17T19:21:53.492Z,29.10
2019-02-17T19:24:56.174Z,30.20
2019-02-17T19:27:58.896Z,29.00
2019-02-17T19:31:01.838Z,30.33
2019-02-17T19:34:04.492Z,27.80
2019-02-17T19:37:07.149Z,33.13
2019-02-17T19:40:10.359Z,30.97
2019-02-17T19:43:13.078Z,27.03
2019-02-17T19:46:15.806Z,30.97
2019-02-17T19:49:18.453Z,28.87
2019-02-17T19:52:21.104Z,33.90
2019-02-17T19:55:23.811Z,24.60
2019-02-17T19:58:26.402Z,28.70
2019-02-17T20:01:29.241Z,32.97
2019-02-17T20:04:54.324Z,24.77
2019-02-17T20:07:57.043Z,31.50
2019-02-17T20:10:59.755Z,31.63
2019-02-17T20:14:02.562Z,29.03
2019-02-17T20:17:05.348Z,31.43
2019-02-17T20:20:07.985Z,28.87
2019-02-17T20:23:10.730Z,28.77
2019-02-17T20:26:13.453Z,29.17
2019-02-17T20:29:16.166Z,30.73
2019-02-17T20:32:18.853Z,30.40
2019-02-17T20:35:21.547Z,28.97
2019-02-17T20:38:24.269Z,29.27
2019-02-17T20:41:27.024Z,28.70
2019-02-17T20:44:29.612Z,26.40
2019-02-17T20:47:32.212Z,32.83
2019-02-17T20:50:34.785Z,25.57
2019-02-17T20:53:37.543Z,32.83
2019-02-17T20:56:40.176Z,24.83
2019-02-17T20:59:42.907Z,27.70
2019-02-17T21:02:45.738Z,29.20
2019-02-17T21:05:48.407Z,28.10
2019-02-17T21:08:51.058Z,30.80
2019-02-17T21:11:53.904Z,29.13
2019-02-17T21:14:57.939Z,29.00
2019-02-17T21:18:00.513Z,27.53
2019-02-17T21:21:03.228Z,29.60
2019-02-17T21:24:06.050Z,24.90
2019-02-17T21:27:08.803Z,26.53
2019-02-17T21:30:11.938Z,26.10
2019-02-17T21:33:14.623Z,22.70
2019-02-17T21:36:23.260Z,24.60
2019-02-17T21:39:21.753Z,26.47
2019-02-17T21:42:24.703Z,21.07
2019-02-17T21:45:28.231Z,31.67
2019-02-17T21:48:30.816Z,23.43
2019-02-17T21:51:33.461Z,24.23
2019-02-17T21:54:36.089Z,24.60
2019-02-17T21:57:38.779Z,22.50
2019-02-17T22:00:41.344Z,22.50
2019-02-17T22:03:43.871Z,23.37
2019-02-17T22:06:46.501Z,21.97
2019-02-17T22:09:50.981Z,18.33
2019-02-17T22:12:53.640Z,23.83
2019-02-17T22:15:56.325Z,20.77
2019-02-17T22:18:59.069Z,20.90
2019-02-17T22:22:01.700Z,24.17
2019-02-17T22:25:04.810Z,22.20
2019-02-17T22:28:07.527Z,20.07
2019-02-17T22:31:10.345Z,22.13
2019-02-17T22:34:13.043Z,19.00
2019-02-17T22:37:16.711Z,19.10
2019-02-17T22:40:19.615Z,20.03
2019-02-17T22:43:22.187Z,21.03
2019-02-17T22:46:24.768Z,20.03
2019-02-17T22:49:29.275Z,22.80
2019-02-17T22:52:31.850Z,20.60
2019-02-17T22:55:34.396Z,18.80
2019-02-17T22:58:36.970Z,21.10
2019-02-17T23:01:39.552Z,19.43
2019-02-17T23:04:42.116Z,18.80
2019-02-17T23:07:44.900Z,19.03
2019-02-17T23:10:47.517Z,21.33
2019-02-17T23:13:50.078Z,17.27
2019-02-17T23:16:52.713Z,18.10
2019-02-17T23:19:55.375Z,21.77
2019-02-17T23:22:58.157Z,18.03
2019-02-17T23:26:00.757Z,20.40
2019-02-17T23:29:03.404Z,20.63
2019-02-17T23:32:06.100Z,22.43
2019-02-17T23:35:08.765Z,20.07
2019-02-17T23:38:11.452Z,21.50
2019-02-17T23:41:14.093Z,21.30
2019-02-17T23:44:16.727Z,19.00
2019-02-17T23:47:19.266Z,22.83
2019-02-17T23:50:21.950Z,18.40
2019-02-17T23:53:24.800Z,21.87
2019-02-17T23:56:30.680Z,19.90
2019-02-17T23:59:33.360Z,25.80
